sensor_id;sensor_type;location;lat;lon;timestamp;P1;durP1;ratioP1;P2;durP2;ratioP2
7989;SDS011;4040;42.848;23.034;2023-07-28T00:03:28;7.37;;;6.67;;
7989;SDS011;4040;42.848;23.034;2023-07-28T00:13:40;6.67;;;6.00;;
7989;SDS011;4040;42.848;23.034;2023-07-28T00:19:30;5.83;;;5.27;;
7989;SDS011;4040;42.848;23.034;2023-07-28T00:25:19;6.37;;;5.73;;
7989;SDS011;4040;42.848;23.034;2023-07-28T00:31:10;6.13;;;5.63;;
7989;SDS011;4040;42.848;23.034;2023-07-28T00:36:59;6.87;;;5.53;;
7989;SDS011;4040;42.848;23.034;2023-07-28T00:42:47;7.10;;;6.47;;
7989;SDS011;4040;42.848;23.034;2023-07-28T00:48:37;8.53;;;6.80;;
7989;SDS011;4040;42.848;23.034;2023-07-28T00:54:27;6.50;;;5.90;;
7989;SDS011;4040;42.848;23.034;2023-07-28T01:00:15;6.30;;;5.70;;
7989;SDS011;4040;42.848;23.034;2023-07-28T01:06:10;5.83;;;5.33;;
7989;SDS011;4040;42.848;23.034;2023-07-28T01:16:27;7.17;;;6.13;;
7989;SDS011;4040;42.848;23.034;2023-07-28T01:22:24;6.23;;;5.70;;
7989;SDS011;4040;42.848;23.034;2023-07-28T01:28:29;6.63;;;6.03;;
7989;SDS011;4040;42.848;23.034;2023-07-28T01:34:18;6.83;;;6.13;;
7989;SDS011;4040;42.848;23.034;2023-07-28T01:40:07;6.40;;;5.80;;
7989;SDS011;4040;42.848;23.034;2023-07-28T01:45:57;5.80;;;5.30;;
7989;SDS011;4040;42.848;23.034;2023-07-28T01:51:46;7.80;;;5.90;;
7989;SDS011;4040;42.848;23.034;2023-07-28T01:57:35;7.13;;;6.10;;
7989;SDS011;4040;42.848;23.034;2023-07-28T02:03:28;7.03;;;6.33;;
7989;SDS011;4040;42.848;23.034;2023-07-28T02:09:17;7.03;;;6.43;;
7989;SDS011;4040;42.848;23.034;2023-07-28T02:19:29;7.57;;;6.80;;
7989;SDS011;4040;42.848;23.034;2023-07-28T02:25:17;9.87;;;7.20;;
7989;SDS011;4040;42.848;23.034;2023-07-28T02:31:06;7.70;;;7.00;;
7989;SDS011;4040;42.848;23.034;2023-07-28T02:36:56;8.10;;;7.30;;
7989;SDS011;4040;42.848;23.034;2023-07-28T02:42:45;10.70;;;7.57;;
7989;SDS011;4040;42.848;23.034;2023-07-28T02:48:34;8.50;;;7.70;;
7989;SDS011;4040;42.848;23.034;2023-07-28T02:54:24;7.27;;;6.57;;
7989;SDS011;4040;42.848;23.034;2023-07-28T03:00:13;8.63;;;7.57;;
7989;SDS011;4040;42.848;23.034;2023-07-28T03:06:02;8.07;;;7.00;;
7989;SDS011;4040;42.848;23.034;2023-07-28T03:11:52;7.47;;;6.67;;
7989;SDS011;4040;42.848;23.034;2023-07-28T03:22:02;8.07;;;7.27;;
7989;SDS011;4040;42.848;23.034;2023-07-28T03:27:53;8.70;;;6.83;;
7989;SDS011;4040;42.848;23.034;2023-07-28T03:33:41;7.70;;;7.00;;
7989;SDS011;4040;42.848;23.034;2023-07-28T03:36:08;9.13;;;7.50;;
7989;SDS011;4040;42.848;23.034;2023-07-28T03:41:57;8.63;;;7.43;;
7989;SDS011;4040;42.848;23.034;2023-07-28T03:47:47;9.00;;;6.70;;
7989;SDS011;4040;42.848;23.034;2023-07-28T03:53:36;7.10;;;6.40;;
7989;SDS011;4040;42.848;23.034;2023-07-28T03:59:25;7.63;;;6.93;;
7989;SDS011;4040;42.848;23.034;2023-07-28T04:05:15;7.70;;;7.00;;
7989;SDS011;4040;42.848;23.034;2023-07-28T04:11:04;8.63;;;7.63;;
7989;SDS011;4040;42.848;23.034;2023-07-28T04:16:53;8.23;;;7.00;;
7989;SDS011;4040;42.848;23.034;2023-07-28T04:19:20;7.23;;;6.53;;
7989;SDS011;4040;42.848;23.034;2023-07-28T04:25:10;6.33;;;5.83;;
7989;SDS011;4040;42.848;23.034;2023-07-28T04:30:59;7.87;;;6.53;;
7989;SDS011;4040;42.848;23.034;2023-07-28T04:36:47;7.30;;;6.70;;
7989;SDS011;4040;42.848;23.034;2023-07-28T04:42:37;7.50;;;6.80;;
7989;SDS011;4040;42.848;23.034;2023-07-28T04:48:26;6.97;;;6.37;;
7989;SDS011;4040;42.848;23.034;2023-07-28T04:54:15;5.05;;;4.47;;
7989;SDS011;4040;42.848;23.034;2023-07-28T05:00:06;4.22;;;3.80;;
7989;SDS011;4040;42.848;23.034;2023-07-28T05:05:55;4.35;;;3.08;;
7989;SDS011;4040;42.848;23.034;2023-07-28T05:11:44;3.22;;;2.92;;
7989;SDS011;4040;42.848;23.034;2023-07-28T05:17:34;3.58;;;3.28;;
7989;SDS011;4040;42.848;23.034;2023-07-28T05:23:23;5.00;;;2.70;;
7989;SDS011;4040;42.848;23.034;2023-07-28T05:29:11;5.55;;;3.22;;
7989;SDS011;4040;42.848;23.034;2023-07-28T05:35:01;2.90;;;2.70;;
7989;SDS011;4040;42.848;23.034;2023-07-28T05:40:55;10.63;;;2.67;;
7989;SDS011;4040;42.848;23.034;2023-07-28T05:46:45;5.60;;;2.70;;
7989;SDS011;4040;42.848;23.034;2023-07-28T05:52:37;8.23;;;3.00;;
7989;SDS011;4040;42.848;23.034;2023-07-28T05:58:25;8.57;;;2.50;;
7989;SDS011;4040;42.848;23.034;2023-07-28T06:04:14;4.43;;;2.40;;
7989;SDS011;4040;42.848;23.034;2023-07-28T06:10:05;12.77;;;3.38;;
7989;SDS011;4040;42.848;23.034;2023-07-28T06:15:55;4.18;;;2.08;;
7989;SDS011;4040;42.848;23.034;2023-07-28T06:21:44;4.18;;;1.92;;
7989;SDS011;4040;42.848;23.034;2023-07-28T06:27:34;2.85;;;1.85;;
7989;SDS011;4040;42.848;23.034;2023-07-28T06:33:23;3.55;;;2.17;;
7989;SDS011;4040;42.848;23.034;2023-07-28T06:39:12;2.35;;;2.05;;
7989;SDS011;4040;42.848;23.034;2023-07-28T06:45:03;7.18;;;2.20;;
7989;SDS011;4040;42.848;23.034;2023-07-28T06:50:52;3.17;;;2.08;;
7989;SDS011;4040;42.848;23.034;2023-07-28T06:56:41;2.60;;;1.92;;
7989;SDS011;4040;42.848;23.034;2023-07-28T07:02:31;3.55;;;1.92;;
7989;SDS011;4040;42.848;23.034;2023-07-28T07:08:19;2.38;;;1.90;;
7989;SDS011;4040;42.848;23.034;2023-07-28T07:14:08;2.72;;;2.22;;
7989;SDS011;4040;42.848;23.034;2023-07-28T07:24:10;15.10;;;2.53;;
7989;SDS011;4040;42.848;23.034;2023-07-28T07:30:00;2.97;;;2.13;;
7989;SDS011;4040;42.848;23.034;2023-07-28T07:35:49;2.35;;;1.95;;
7989;SDS011;4040;42.848;23.034;2023-07-28T07:41:39;3.22;;;2.10;;
7989;SDS011;4040;42.848;23.034;2023-07-28T07:47:27;5.50;;;2.45;;
7989;SDS011;4040;42.848;23.034;2023-07-28T07:53:16;4.55;;;2.20;;
7989;SDS011;4040;42.848;23.034;2023-07-28T07:59:06;3.38;;;2.50;;
7989;SDS011;4040;42.848;23.034;2023-07-28T08:04:55;3.85;;;2.38;;
7989;SDS011;4040;42.848;23.034;2023-07-28T08:10:43;4.25;;;2.15;;
7989;SDS011;4040;42.848;23.034;2023-07-28T08:16:34;2.42;;;1.80;;
7989;SDS011;4040;42.848;23.034;2023-07-28T08:26:44;2.10;;;1.90;;
7989;SDS011;4040;42.848;23.034;2023-07-28T08:32:34;3.05;;;1.67;;
7989;SDS011;4040;42.848;23.034;2023-07-28T08:38:23;3.42;;;1.80;;
7989;SDS011;4040;42.848;23.034;2023-07-28T08:44:11;2.45;;;1.60;;
7989;SDS011;4040;42.848;23.034;2023-07-28T08:50:01;2.47;;;2.13;;
7989;SDS011;4040;42.848;23.034;2023-07-28T08:55:52;2.25;;;2.00;;
7989;SDS011;4040;42.848;23.034;2023-07-28T09:01:41;3.92;;;2.30;;
7989;SDS011;4040;42.848;23.034;2023-07-28T09:07:34;1.95;;;1.80;;
7989;SDS011;4040;42.848;23.034;2023-07-28T09:13:24;2.75;;;1.70;;
7989;SDS011;4040;42.848;23.034;2023-07-28T09:19:13;2.15;;;1.92;;
7989;SDS011;4040;42.848;23.034;2023-07-28T09:29:25;1.92;;;1.80;;
7989;SDS011;4040;42.848;23.034;2023-07-28T09:35:14;2.35;;;2.15;;
7989;SDS011;4040;42.848;23.034;2023-07-28T09:41:03;12.27;;;2.67;;
7989;SDS011;4040;42.848;23.034;2023-07-28T09:46:56;2.40;;;1.73;;
7989;SDS011;4040;42.848;23.034;2023-07-28T09:52:46;2.35;;;1.98;;
7989;SDS011;4040;42.848;23.034;2023-07-28T09:58:37;2.28;;;2.00;;
7989;SDS011;4040;42.848;23.034;2023-07-28T10:04:31;2.15;;;1.95;;
7989;SDS011;4040;42.848;23.034;2023-07-28T10:10:20;2.25;;;1.98;;
7989;SDS011;4040;42.848;23.034;2023-07-28T10:16:09;1.83;;;1.70;;
7989;SDS011;4040;42.848;23.034;2023-07-28T10:22:04;2.13;;;1.90;;
7989;SDS011;4040;42.848;23.034;2023-07-28T10:32:25;2.15;;;1.95;;
7989;SDS011;4040;42.848;23.034;2023-07-28T10:38:32;2.33;;;2.13;;
7989;SDS011;4040;42.848;23.034;2023-07-28T10:44:23;2.38;;;2.05;;
7989;SDS011;4040;42.848;23.034;2023-07-28T10:50:11;2.20;;;2.00;;
7989;SDS011;4040;42.848;23.034;2023-07-28T10:56:02;1.92;;;1.83;;
7989;SDS011;4040;42.848;23.034;2023-07-28T11:01:52;5.15;;;2.47;;
7989;SDS011;4040;42.848;23.034;2023-07-28T11:07:41;3.42;;;2.10;;
7989;SDS011;4040;42.848;23.034;2023-07-28T11:13:32;2.25;;;2.05;;
7989;SDS011;4040;42.848;23.034;2023-07-28T11:19:20;2.15;;;1.90;;
7989;SDS011;4040;42.848;23.034;2023-07-28T11:25:11;3.30;;;2.63;;
7989;SDS011;4040;42.848;23.034;2023-07-28T11:35:23;4.78;;;2.25;;
7989;SDS011;4040;42.848;23.034;2023-07-28T11:41:12;4.90;;;2.85;;
7989;SDS011;4040;42.848;23.034;2023-07-28T11:47:04;2.67;;;2.47;;
7989;SDS011;4040;42.848;23.034;2023-07-28T11:52:55;2.63;;;2.17;;
7989;SDS011;4040;42.848;23.034;2023-07-28T11:58:45;4.88;;;2.33;;
7989;SDS011;4040;42.848;23.034;2023-07-28T12:04:39;6.03;;;2.40;;
7989;SDS011;4040;42.848;23.034;2023-07-28T12:10:31;2.65;;;2.13;;
7989;SDS011;4040;42.848;23.034;2023-07-28T12:16:37;2.53;;;2.33;;
7989;SDS011;4040;42.848;23.034;2023-07-28T12:22:28;6.93;;;2.20;;
7989;SDS011;4040;42.848;23.034;2023-07-28T12:28:20;4.78;;;2.65;;
7989;SDS011;4040;42.848;23.034;2023-07-28T12:38:30;4.18;;;2.28;;
7989;SDS011;4040;42.848;23.034;2023-07-28T12:44:21;2.92;;;2.30;;
7989;SDS011;4040;42.848;23.034;2023-07-28T12:46:48;2.50;;;2.30;;
7989;SDS011;4040;42.848;23.034;2023-07-28T12:52:37;8.77;;;2.40;;
7989;SDS011;4040;42.848;23.034;2023-07-28T12:58:26;2.60;;;2.40;;
7989;SDS011;4040;42.848;23.034;2023-07-28T13:04:16;2.85;;;2.20;;
7989;SDS011;4040;42.848;23.034;2023-07-28T13:10:05;4.28;;;2.03;;
7989;SDS011;4040;42.848;23.034;2023-07-28T13:15:56;5.38;;;2.50;;
7989;SDS011;4040;42.848;23.034;2023-07-28T13:21:47;3.00;;;2.28;;
7989;SDS011;4040;42.848;23.034;2023-07-28T13:27:35;4.75;;;2.50;;
7989;SDS011;4040;42.848;23.034;2023-07-28T13:33:24;3.72;;;2.20;;
7989;SDS011;4040;42.848;23.034;2023-07-28T13:39:15;3.35;;;1.70;;
7989;SDS011;4040;42.848;23.034;2023-07-28T13:45:04;3.15;;;2.30;;
7989;SDS011;4040;42.848;23.034;2023-07-28T13:50:53;7.38;;;2.08;;
7989;SDS011;4040;42.848;23.034;2023-07-28T13:56:43;4.53;;;2.30;;
7989;SDS011;4040;42.848;23.034;2023-07-28T14:02:32;2.28;;;1.90;;
7989;SDS011;4040;42.848;23.034;2023-07-28T14:08:20;3.45;;;2.22;;
7989;SDS011;4040;42.848;23.034;2023-07-28T14:14:10;2.80;;;1.73;;
7989;SDS011;4040;42.848;23.034;2023-07-28T14:19:59;3.15;;;1.90;;
7989;SDS011;4040;42.848;23.034;2023-07-28T14:25:48;3.25;;;2.00;;
7989;SDS011;4040;42.848;23.034;2023-07-28T14:31:38;4.22;;;2.15;;
7989;SDS011;4040;42.848;23.034;2023-07-28T14:41:48;3.15;;;1.83;;
7989;SDS011;4040;42.848;23.034;2023-07-28T14:47:38;3.08;;;1.77;;
7989;SDS011;4040;42.848;23.034;2023-07-28T14:53:27;4.53;;;1.90;;
7989;SDS011;4040;42.848;23.034;2023-07-28T14:59:17;3.28;;;1.67;;
7989;SDS011;4040;42.848;23.034;2023-07-28T15:05:08;3.42;;;1.92;;
7989;SDS011;4040;42.848;23.034;2023-07-28T15:10:57;3.53;;;1.85;;
7989;SDS011;4040;42.848;23.034;2023-07-28T15:16:46;4.93;;;2.15;;
7989;SDS011;4040;42.848;23.034;2023-07-28T15:22:36;2.20;;;2.00;;
7989;SDS011;4040;42.848;23.034;2023-07-28T15:28:25;3.15;;;1.90;;
7989;SDS011;4040;42.848;23.034;2023-07-28T15:34:14;4.68;;;2.15;;
7989;SDS011;4040;42.848;23.034;2023-07-28T15:44:25;6.07;;;1.90;;
7989;SDS011;4040;42.848;23.034;2023-07-28T15:50:14;4.20;;;1.70;;
7989;SDS011;4040;42.848;23.034;2023-07-28T15:56:03;2.42;;;1.70;;
7989;SDS011;4040;42.848;23.034;2023-07-28T15:58:30;2.17;;;1.73;;
7989;SDS011;4040;42.848;23.034;2023-07-28T16:00:59;2.42;;;1.77;;
7989;SDS011;4040;42.848;23.034;2023-07-28T16:06:47;7.75;;;2.10;;
7989;SDS011;4040;42.848;23.034;2023-07-28T16:12:36;2.60;;;1.95;;
7989;SDS011;4040;42.848;23.034;2023-07-28T16:18:26;2.25;;;2.05;;
7989;SDS011;4040;42.848;23.034;2023-07-28T16:24:14;2.70;;;1.67;;
7989;SDS011;4040;42.848;23.034;2023-07-28T16:30:04;2.45;;;1.90;;
7989;SDS011;4040;42.848;23.034;2023-07-28T16:35:55;2.25;;;1.75;;
7989;SDS011;4040;42.848;23.034;2023-07-28T16:38:23;1.60;;;1.50;;
7989;SDS011;4040;42.848;23.034;2023-07-28T16:44:11;2.38;;;1.77;;
7989;SDS011;4040;42.848;23.034;2023-07-28T17:00:12;2.50;;;1.98;;
7989;SDS011;4040;42.848;23.034;2023-07-28T17:06:01;2.15;;;1.73;;
7989;SDS011;4040;42.848;23.034;2023-07-28T17:11:51;2.38;;;1.85;;
7989;SDS011;4040;42.848;23.034;2023-07-28T17:17:42;2.58;;;2.10;;
7989;SDS011;4040;42.848;23.034;2023-07-28T17:23:30;1.88;;;1.75;;
7989;SDS011;4040;42.848;23.034;2023-07-28T17:29:19;2.35;;;1.98;;
7989;SDS011;4040;42.848;23.034;2023-07-28T17:35:10;2.88;;;1.92;;
7989;SDS011;4040;42.848;23.034;2023-07-28T17:40:59;2.50;;;2.13;;
7989;SDS011;4040;42.848;23.034;2023-07-28T17:46:49;2.70;;;1.95;;
7989;SDS011;4040;42.848;23.034;2023-07-28T17:52:39;2.20;;;2.00;;
7989;SDS011;4040;42.848;23.034;2023-07-28T17:58:27;4.07;;;2.17;;
7989;SDS011;4040;42.848;23.034;2023-07-28T18:04:17;3.83;;;1.90;;
7989;SDS011;4040;42.848;23.034;2023-07-28T18:10:07;2.67;;;1.92;;
7989;SDS011;4040;42.848;23.034;2023-07-28T18:15:56;4.25;;;2.00;;
7989;SDS011;4040;42.848;23.034;2023-07-28T18:21:45;4.90;;;1.95;;
7989;SDS011;4040;42.848;23.034;2023-07-28T18:27:35;3.53;;;2.17;;
7989;SDS011;4040;42.848;23.034;2023-07-28T18:33:23;3.63;;;2.50;;
7989;SDS011;4040;42.848;23.034;2023-07-28T18:39:12;2.60;;;2.25;;
7989;SDS011;4040;42.848;23.034;2023-07-28T18:45:02;3.75;;;2.10;;
7989;SDS011;4040;42.848;23.034;2023-07-28T18:50:52;3.10;;;2.38;;
7989;SDS011;4040;42.848;23.034;2023-07-28T19:00:26;3.38;;;2.40;;
7989;SDS011;4040;42.848;23.034;2023-07-28T19:06:15;4.90;;;2.20;;
7989;SDS011;4040;42.848;23.034;2023-07-28T19:12:05;3.47;;;2.50;;
7989;SDS011;4040;42.848;23.034;2023-07-28T19:17:56;5.53;;;3.72;;
7989;SDS011;4040;42.848;23.034;2023-07-28T19:23:45;4.35;;;3.00;;
7989;SDS011;4040;42.848;23.034;2023-07-28T19:29:33;2.67;;;2.28;;
7989;SDS011;4040;42.848;23.034;2023-07-28T19:35:23;2.85;;;2.40;;
7989;SDS011;4040;42.848;23.034;2023-07-28T19:41:12;2.33;;;2.03;;
7989;SDS011;4040;42.848;23.034;2023-07-28T19:47:03;3.50;;;2.58;;
7989;SDS011;4040;42.848;23.034;2023-07-28T19:52:54;3.42;;;2.38;;
7989;SDS011;4040;42.848;23.034;2023-07-28T20:02:44;4.88;;;2.28;;
7989;SDS011;4040;42.848;23.034;2023-07-28T20:08:35;3.85;;;2.40;;
7989;SDS011;4040;42.848;23.034;2023-07-28T20:14:23;2.95;;;2.47;;
7989;SDS011;4040;42.848;23.034;2023-07-28T20:20:12;2.60;;;2.40;;
7989;SDS011;4040;42.848;23.034;2023-07-28T20:26:02;2.92;;;2.60;;
7989;SDS011;4040;42.848;23.034;2023-07-28T20:31:53;2.58;;;2.30;;
7989;SDS011;4040;42.848;23.034;2023-07-28T20:37:41;5.55;;;3.33;;
7989;SDS011;4040;42.848;23.034;2023-07-28T20:43:31;2.85;;;2.58;;
7989;SDS011;4040;42.848;23.034;2023-07-28T20:49:20;3.58;;;2.47;;
7989;SDS011;4040;42.848;23.034;2023-07-28T20:55:09;3.95;;;2.42;;
7989;SDS011;4040;42.848;23.034;2023-07-28T21:05:11;2.72;;;2.40;;
7989;SDS011;4040;42.848;23.034;2023-07-28T21:11:00;3.30;;;2.70;;
7989;SDS011;4040;42.848;23.034;2023-07-28T21:16:49;3.90;;;2.67;;
7989;SDS011;4040;42.848;23.034;2023-07-28T21:22:39;2.97;;;2.67;;
7989;SDS011;4040;42.848;23.034;2023-07-28T21:28:28;4.30;;;3.03;;
7989;SDS011;4040;42.848;23.034;2023-07-28T21:34:17;7.05;;;2.97;;
7989;SDS011;4040;42.848;23.034;2023-07-28T21:40:07;2.83;;;2.40;;
7989;SDS011;4040;42.848;23.034;2023-07-28T21:45:57;5.72;;;2.42;;
7989;SDS011;4040;42.848;23.034;2023-07-28T21:51:46;3.10;;;2.63;;
7989;SDS011;4040;42.848;23.034;2023-07-28T21:57:37;3.85;;;2.70;;
7989;SDS011;4040;42.848;23.034;2023-07-28T22:08:33;3.13;;;2.50;;
7989;SDS011;4040;42.848;23.034;2023-07-28T22:14:22;2.47;;;2.28;;
7989;SDS011;4040;42.848;23.034;2023-07-28T22:20:11;2.95;;;2.65;;
7989;SDS011;4040;42.848;23.034;2023-07-28T22:26:01;3.92;;;2.70;;
7989;SDS011;4040;42.848;23.034;2023-07-28T22:31:50;3.33;;;2.70;;
7989;SDS011;4040;42.848;23.034;2023-07-28T22:37:39;4.28;;;3.10;;
7989;SDS011;4040;42.848;23.034;2023-07-28T22:43:29;3.92;;;3.00;;
7989;SDS011;4040;42.848;23.034;2023-07-28T22:49:17;3.75;;;3.13;;
7989;SDS011;4040;42.848;23.034;2023-07-28T22:55:07;4.53;;;2.85;;
7989;SDS011;4040;42.848;23.034;2023-07-28T23:00:57;3.00;;;2.70;;
7989;SDS011;4040;42.848;23.034;2023-07-28T23:11:07;4.15;;;2.75;;
7989;SDS011;4040;42.848;23.034;2023-07-28T23:16:58;3.10;;;2.80;;
7989;SDS011;4040;42.848;23.034;2023-07-28T23:22:46;3.10;;;2.83;;
7989;SDS011;4040;42.848;23.034;2023-07-28T23:28:35;3.47;;;3.17;;
7989;SDS011;4040;42.848;23.034;2023-07-28T23:34:25;3.70;;;3.20;;
7989;SDS011;4040;42.848;23.034;2023-07-28T23:40:14;4.88;;;2.80;;
7989;SDS011;4040;42.848;23.034;2023-07-28T23:46:03;3.90;;;3.40;;
7989;SDS011;4040;42.848;23.034;2023-07-28T23:51:53;5.57;;;3.20;;
7989;SDS011;4040;42.848;23.034;2023-07-28T23:57:42;3.28;;;2.97;;
